Wetterdaten: Sonntag, 15.08.2010
Datum Zeit Temp. A. Feuchte A. Luftdruck Regen Wind Richtung Richtung Sonnenschein UV Solar Windben
15.08.2010 00:00 15,7 C 79 % 1015,6 hPa 0,0 mm 0,0 km/h (0 Bft) NO 45 0 min 0 UV-I 0 W/m 1,6 km/h (1 Bft)
15.08.2010 00:10 15,7 C 80 % 1015,6 hPa 0,0 mm 0,0 km/h (0 Bft) NO 45 0 min 0 UV-I 0 W/m 3,2 km/h (1 Bft)
15.08.2010 00:20 15,6 C 80 % 1015,5 hPa 0,0 mm 0,0 km/h (0 Bft) NO 45 0 min 0 UV-I 0 W/m 1,6 km/h (1 Bft)
15.08.2010 00:30 15,5 C 81 % 1015,5 hPa 0,0 mm 0,0 km/h (0 Bft) NO 45 0 min 0 UV-I 0 W/m 1,6 km/h (1 Bft)
15.08.2010 00:40 15,4 C 81 % 1015,4 hPa 0,0 mm 0,0 km/h (0 Bft) NO 45 0 min 0 UV-I 0 W/m 4,8 km/h (1 Bft)
15.08.2010 00:50 15,4 C 81 % 1015,4 hPa 0,0 mm 0,0 km/h (0 Bft) NO 45 0 min 0 UV-I 0 W/m 4,8 km/h (1 Bft)
15.08.2010 01:00 15,1 C 82 % 1015,5 hPa 0,0 mm 0,0 km/h (0 Bft) N 0 0 min 0 UV-I 0 W/m 0,0 km/h (0 Bft)
15.08.2010 01:10 15,1 C 83 % 1015,4 hPa 0,0 mm 0,0 km/h (0 Bft) NO 45 0 min 0 UV-I 0 W/m 1,6 km/h (1 Bft)
15.08.2010 01:20 15,0 C 83 % 1015,4 hPa 0,0 mm 0,0 km/h (0 Bft) NO 45 0 min 0 UV-I 0 W/m 1,6 km/h (1 Bft)
15.08.2010 01:30 14,8 C 84 % 1015,3 hPa 0,0 mm 0,0 km/h (0 Bft) NO 45 0 min 0 UV-I 0 W/m 3,2 km/h (1 Bft)
15.08.2010 01:40 14,8 C 84 % 1015,3 hPa 0,0 mm 0,0 km/h (0 Bft) NO 45 0 min 0 UV-I 0 W/m 1,6 km/h (1 Bft)
15.08.2010 01:50 14,8 C 84 % 1015,2 hPa 0,0 mm 0,0 km/h (0 Bft) NO 45 0 min 0 UV-I 0 W/m 3,2 km/h (1 Bft)
15.08.2010 02:00 14,8 C 84 % 1015,2 hPa 0,0 mm 0,0 km/h (0 Bft) NO 45 0 min 0 UV-I 0 W/m 3,2 km/h (1 Bft)
15.08.2010 02:10 14,6 C 84 % 1015,2 hPa 0,0 mm 0,0 km/h (0 Bft) NO 45 0 min 0 UV-I 0 W/m 3,2 km/h (1 Bft)
15.08.2010 02:20 14,6 C 84 % 1015,2 hPa 0,0 mm 1,6 km/h (1 Bft) NO 45 0 min 0 UV-I 0 W/m 4,8 km/h (1 Bft)
15.08.2010 02:30 14,8 C 84 % 1015,2 hPa 0,0 mm 1,6 km/h (1 Bft) N-NO 22 0 min 0 UV-I 0 W/m 8,0 km/h (2 Bft)
15.08.2010 02:40 14,8 C 84 % 1015,1 hPa 0,0 mm 0,0 km/h (0 Bft) N-NO 22 0 min 0 UV-I 0 W/m 4,8 km/h (1 Bft)
15.08.2010 02:50 14,8 C 84 % 1015,0 hPa 0,0 mm 0,0 km/h (0 Bft) N-NO 22 0 min 0 UV-I 0 W/m 4,8 km/h (1 Bft)
15.08.2010 03:00 14,8 C 85 % 1015,0 hPa 0,0 mm 1,6 km/h (1 Bft) N-NO 22 0 min 0 UV-I 0 W/m 6,4 km/h (2 Bft)
15.08.2010 03:10 15,1 C 84 % 1015,0 hPa 0,0 mm 1,6 km/h (1 Bft) N-NO 22 0 min 0 UV-I 0 W/m 6,4 km/h (2 Bft)
15.08.2010 03:20 15,2 C 84 % 1015,0 hPa 0,0 mm 0,0 km/h (0 Bft) N-NO 22 0 min 0 UV-I 0 W/m 1,6 km/h (1 Bft)
15.08.2010 03:30 15,4 C 84 % 1014,7 hPa 0,0 mm 0,0 km/h (0 Bft) N-NO 22 0 min 0 UV-I 0 W/m 4,8 km/h (1 Bft)
15.08.2010 03:40 15,4 C 84 % 1014,5 hPa 0,0 mm 1,6 km/h (1 Bft) N-NO 22 0 min 0 UV-I 0 W/m 6,4 km/h (2 Bft)
15.08.2010 03:50 15,5 C 83 % 1014,4 hPa 0,0 mm 1,6 km/h (1 Bft) N-NO 22 0 min 0 UV-I 0 W/m 8,0 km/h (2 Bft)
15.08.2010 04:00 15,5 C 83 % 1014,4 hPa 0,0 mm 1,6 km/h (1 Bft) N-NO 22 0 min 0 UV-I 0 W/m 8,0 km/h (2 Bft)
15.08.2010 04:10 15,6 C 83 % 1014,3 hPa 0,0 mm 0,0 km/h (0 Bft) N-NO 22 0 min 0 UV-I 0 W/m 4,8 km/h (1 Bft)
15.08.2010 04:20 15,7 C 83 % 1014,1 hPa 0,0 mm 1,6 km/h (1 Bft) N-NO 22 0 min 0 UV-I 0 W/m 4,8 km/h (1 Bft)
15.08.2010 04:30 15,8 C 83 % 1014,0 hPa 0,0 mm 1,6 km/h (1 Bft) N-NO 22 0 min 0 UV-I 0 W/m 8,0 km/h (2 Bft)
15.08.2010 04:40 15,8 C 84 % 1013,8 hPa 0,0 mm 0,0 km/h (0 Bft) N-NO 22 0 min 0 UV-I 0 W/m 4,8 km/h (1 Bft)
15.08.2010 04:50 15,9 C 84 % 1013,6 hPa 0,0 mm 0,0 km/h (0 Bft) N-NO 22 0 min 0 UV-I 0 W/m 6,4 km/h (2 Bft)
15.08.2010 05:00 15,9 C 85 % 1013,5 hPa 0,0 mm 1,6 km/h (1 Bft) N 360 0 min 0 UV-I 0 W/m 9,7 km/h (2 Bft)
15.08.2010 05:10 16,1 C 84 % 1013,6 hPa 0,0 mm 1,6 km/h (1 Bft) NO 45 0 min 0 UV-I 0 W/m 6,4 km/h (2 Bft)
15.08.2010 05:20 16,1 C 84 % 1013,5 hPa 0,0 mm 1,6 km/h (1 Bft) N-NO 22 0 min 0 UV-I 0 W/m 8,0 km/h (2 Bft)
15.08.2010 05:30 16,1 C 84 % 1013,4 hPa 0,0 mm 1,6 km/h (1 Bft) N-NO 22 0 min 0 UV-I 0 W/m 8,0 km/h (2 Bft)
15.08.2010 05:40 16,2 C 84 % 1013,2 hPa 0,0 mm 3,2 km/h (1 Bft) N 360 0 min 0 UV-I 0 W/m 9,7 km/h (2 Bft)
15.08.2010 05:50 16,2 C 85 % 1013,0 hPa 0,0 mm 3,2 km/h (1 Bft) N 360 0 min 0 UV-I 0 W/m 9,7 km/h (2 Bft)
15.08.2010 06:00 16,2 C 85 % 1013,1 hPa 0,0 mm 1,6 km/h (1 Bft) NO 45 0 min 0 UV-I 0 W/m 6,4 km/h (2 Bft)
15.08.2010 06:10 16,2 C 85 % 1013,1 hPa 0,0 mm 1,6 km/h (1 Bft) NO 45 0 min 0 UV-I 0 W/m 8,0 km/h (2 Bft)
15.08.2010 06:20 16,2 C 85 % 1012,9 hPa 0,0 mm 1,6 km/h (1 Bft) N-NO 22 0 min 0 UV-I 0 W/m 8,0 km/h (2 Bft)
15.08.2010 06:30 16,2 C 86 % 1012,8 hPa 0,0 mm 1,6 km/h (1 Bft) N-NO 22 0 min 0 UV-I 0 W/m 8,0 km/h (2 Bft)
15.08.2010 06:40 16,2 C 86 % 1012,7 hPa 0,0 mm 3,2 km/h (1 Bft) N-NO 22 0 min 0 UV-I 5 W/m 11,3 km/h (2 Bft)
15.08.2010 06:50 16,2 C 86 % 1012,7 hPa 0,0 mm 1,6 km/h (1 Bft) N-NO 22 0 min 0 UV-I 5 W/m 11,3 km/h (2 Bft)
15.08.2010 07:00 16,2 C 86 % 1012,7 hPa 0,0 mm 0,0 km/h (0 Bft) NO 45 0 min 0 UV-I 9 W/m 4,8 km/h (1 Bft)
15.08.2010 07:10 16,2 C 86 % 1012,5 hPa 0,0 mm 3,2 km/h (1 Bft) N-NO 22 0 min 0 UV-I 19 W/m 9,7 km/h (2 Bft)
15.08.2010 07:20 16,3 C 86 % 1012,5 hPa 0,0 mm 3,2 km/h (1 Bft) N-NO 22 0 min 0 UV-I 21 W/m 14,5 km/h (3 Bft)
15.08.2010 07:30 16,3 C 86 % 1012,4 hPa 0,0 mm 3,2 km/h (1 Bft) N-NO 22 0 min 0 UV-I 30 W/m 11,3 km/h (2 Bft)
15.08.2010 07:40 16,4 C 86 % 1012,5 hPa 0,0 mm 1,6 km/h (1 Bft) O-NO 67 0 min 0 UV-I 35 W/m 6,4 km/h (2 Bft)
15.08.2010 07:50 16,5 C 86 % 1012,7 hPa 0,0 mm 0,0 km/h (0 Bft) NO 45 0 min 0 UV-I 25 W/m 4,8 km/h (1 Bft)
15.08.2010 08:00 16,6 C 86 % 1012,5 hPa 0,0 mm 3,2 km/h (1 Bft) N-NO 22 0 min 0 UV-I 30 W/m 11,3 km/h (2 Bft)
15.08.2010 08:10 16,6 C 86 % 1012,5 hPa 0,0 mm 3,2 km/h (1 Bft) O-NO 67 0 min 0 UV-I 30 W/m 16,1 km/h (3 Bft)
15.08.2010 08:20 16,7 C 87 % 1012,4 hPa 0,0 mm 4,8 km/h (1 Bft) O-NO 67 0 min 0 UV-I 28 W/m 12,9 km/h (3 Bft)
15.08.2010 08:30 16,7 C 87 % 1012,1 hPa 0,0 mm 3,2 km/h (1 Bft) N-NO 22 0 min 0 UV-I 32 W/m 11,3 km/h (2 Bft)
15.08.2010 08:40 16,8 C 87 % 1012,2 hPa 0,0 mm 3,2 km/h (1 Bft) O-NO 67 0 min 0 UV-I 33 W/m 14,5 km/h (3 Bft)
15.08.2010 08:50 16,8 C 87 % 1012,3 hPa 0,0 mm 4,8 km/h (1 Bft) O-NO 67 0 min 0 UV-I 39 W/m 11,3 km/h (2 Bft)
15.08.2010 09:00 16,9 C 87 % 1012,3 hPa 0,0 mm 3,2 km/h (1 Bft) O-NO 67 0 min 0 UV-I 49 W/m 11,3 km/h (2 Bft)
15.08.2010 09:10 17,0 C 88 % 1012,2 hPa 0,0 mm 1,6 km/h (1 Bft) O-NO 67 0 min 0 UV-I 49 W/m 9,7 km/h (2 Bft)
15.08.2010 09:20 17,1 C 86 % 1012,1 hPa 0,0 mm 3,2 km/h (1 Bft) O-NO 67 0 min 1 UV-I 58 W/m 12,9 km/h (3 Bft)
15.08.2010 09:30 17,2 C 86 % 1012,0 hPa 0,0 mm 3,2 km/h (1 Bft) N 360 0 min 0 UV-I 54 W/m 12,9 km/h (3 Bft)
15.08.2010 09:40 17,3 C 86 % 1012,1 hPa 0,0 mm 3,2 km/h (1 Bft) O-NO 67 0 min 0 UV-I 49 W/m 11,3 km/h (2 Bft)
15.08.2010 09:50 17,3 C 86 % 1012,0 hPa 0,0 mm 3,2 km/h (1 Bft) N-NO 22 0 min 0 UV-I 54 W/m 11,3 km/h (2 Bft)
15.08.2010 10:00 17,4 C 86 % 1011,9 hPa 0,0 mm 3,2 km/h (1 Bft) NO 45 0 min 1 UV-I 74 W/m 11,3 km/h (2 Bft)
15.08.2010 10:10 17,5 C 86 % 1011,9 hPa 0,0 mm 1,6 km/h (1 Bft) N-NO 22 0 min 1 UV-I 70 W/m 8,0 km/h (2 Bft)
15.08.2010 10:20 17,6 C 86 % 1011,9 hPa 0,0 mm 1,6 km/h (1 Bft) O-NO 67 0 min 0 UV-I 54 W/m 14,5 km/h (3 Bft)
15.08.2010 10:30 17,6 C 85 % 1011,8 hPa 0,0 mm 4,8 km/h (1 Bft) O-NO 67 0 min 0 UV-I 46 W/m 14,5 km/h (3 Bft)
15.08.2010 10:40 17,6 C 85 % 1011,6 hPa 0,0 mm 3,2 km/h (1 Bft) NO 45 0 min 0 UV-I 40 W/m 16,1 km/h (3 Bft)
15.08.2010 10:50 17,6 C 85 % 1011,6 hPa 0,0 mm 3,2 km/h (1 Bft) O-NO 67 0 min 0 UV-I 44 W/m 16,1 km/h (3 Bft)
15.08.2010 11:00 17,7 C 86 % 1011,3 hPa 0,0 mm 4,8 km/h (1 Bft) N-NO 22 0 min 1 UV-I 62 W/m 12,9 km/h (3 Bft)
15.08.2010 11:10 17,7 C 85 % 1011,4 hPa 0,0 mm 3,2 km/h (1 Bft) O-NO 67 0 min 1 UV-I 77 W/m 9,7 km/h (2 Bft)
15.08.2010 11:20 17,8 C 85 % 1011,4 hPa 0,0 mm 4,8 km/h (1 Bft) NO 45 0 min 1 UV-I 76 W/m 16,1 km/h (3 Bft)
15.08.2010 11:30 17,8 C 85 % 1011,3 hPa 0,0 mm 3,2 km/h (1 Bft) NO 45 0 min 1 UV-I 81 W/m 11,3 km/h (2 Bft)
15.08.2010 11:40 18,0 C 84 % 1011,2 hPa 0,0 mm 4,8 km/h (1 Bft) O-NO 67 0 min 1 UV-I 88 W/m 11,3 km/h (2 Bft)
15.08.2010 11:50 18,1 C 84 % 1011,2 hPa 0,0 mm 3,2 km/h (1 Bft) O-NO 67 0 min 1 UV-I 81 W/m 11,3 km/h (2 Bft)
15.08.2010 12:00 18,1 C 85 % 1011,1 hPa 0,0 mm 3,2 km/h (1 Bft) N-NO 22 0 min 1 UV-I 72 W/m 12,9 km/h (3 Bft)
15.08.2010 12:10 17,9 C 87 % 1011,1 hPa 0,0 mm 3,2 km/h (1 Bft) N 360 0 min 1 UV-I 77 W/m 9,7 km/h (2 Bft)
15.08.2010 12:20 17,8 C 88 % 1010,9 hPa 0,0 mm 3,2 km/h (1 Bft) N 360 0 min 1 UV-I 70 W/m 9,7 km/h (2 Bft)
15.08.2010 12:30 17,7 C 88 % 1010,9 hPa 0,3 mm 3,2 km/h (1 Bft) N-NO 22 0 min 1 UV-I 83 W/m 11,3 km/h (2 Bft)
15.08.2010 12:40 17,6 C 89 % 1010,9 hPa 0,0 mm 1,6 km/h (1 Bft) N-NO 22 0 min 1 UV-I 97 W/m 11,3 km/h (2 Bft)
15.08.2010 12:50 17,6 C 90 % 1010,9 hPa 0,0 mm 1,6 km/h (1 Bft) NO 45 0 min 1 UV-I 98 W/m 4,8 km/h (1 Bft)
15.08.2010 13:00 17,6 C 90 % 1010,7 hPa 0,0 mm 1,6 km/h (1 Bft) N-NO 22 0 min 1 UV-I 62 W/m 6,4 km/h (2 Bft)
15.08.2010 13:10 17,6 C 90 % 1010,7 hPa 0,0 mm 1,6 km/h (1 Bft) N-NO 22 0 min 1 UV-I 60 W/m 8,0 km/h (2 Bft)
15.08.2010 13:20 17,5 C 90 % 1010,7 hPa 0,0 mm 1,6 km/h (1 Bft) N 360 0 min 0 UV-I 39 W/m 9,7 km/h (2 Bft)
15.08.2010 13:30 17,6 C 90 % 1010,5 hPa 0,0 mm 3,2 km/h (1 Bft) N-NO 22 0 min 0 UV-I 35 W/m 8,0 km/h (2 Bft)
15.08.2010 13:40 17,6 C 90 % 1010,4 hPa 0,0 mm 1,6 km/h (1 Bft) N-NW 337 0 min 0 UV-I 39 W/m 8,0 km/h (2 Bft)
15.08.2010 13:50 17,6 C 90 % 1010,4 hPa 0,0 mm 0,0 km/h (0 Bft) N 360 0 min 0 UV-I 30 W/m 6,4 km/h (2 Bft)
15.08.2010 14:00 17,6 C 90 % 1010,3 hPa 0,0 mm 1,6 km/h (1 Bft) N 360 0 min 0 UV-I 16 W/m 11,3 km/h (2 Bft)
15.08.2010 14:10 17,5 C 91 % 1010,2 hPa 1,0 mm 0,0 km/h (0 Bft) NO 45 0 min 0 UV-I 40 W/m 4,8 km/h (1 Bft)
15.08.2010 14:20 17,4 C 91 % 1010,0 hPa 0,3 mm 1,6 km/h (1 Bft) N-NO 22 0 min 0 UV-I 39 W/m 6,4 km/h (2 Bft)
15.08.2010 14:30 17,4 C 91 % 1009,9 hPa 0,3 mm 1,6 km/h (1 Bft) N-NO 22 0 min 0 UV-I 47 W/m 4,8 km/h (1 Bft)
15.08.2010 14:40 17,5 C 91 % 1009,7 hPa 0,0 mm 0,0 km/h (0 Bft) N-NO 22 0 min 0 UV-I 37 W/m 1,6 km/h (1 Bft)
15.08.2010 14:50 17,5 C 92 % 1009,6 hPa 0,0 mm 0,0 km/h (0 Bft) NO 45 0 min 1 UV-I 58 W/m 3,2 km/h (1 Bft)
15.08.2010 15:00 17,6 C 92 % 1009,6 hPa 0,0 mm 1,6 km/h (1 Bft) O-NO 67 0 min 1 UV-I 84 W/m 6,4 km/h (2 Bft)
15.08.2010 15:10 17,6 C 92 % 1009,5 hPa 0,3 mm 1,6 km/h (1 Bft) NO 45 0 min 1 UV-I 90 W/m 8,0 km/h (2 Bft)
15.08.2010 15:20 17,6 C 92 % 1009,5 hPa 0,3 mm 0,0 km/h (0 Bft) NO 45 0 min 0 UV-I 44 W/m 8,0 km/h (2 Bft)
15.08.2010 15:30 17,4 C 92 % 1009,5 hPa 0,5 mm 1,6 km/h (1 Bft) NO 45 0 min 0 UV-I 47 W/m 8,0 km/h (2 Bft)
15.08.2010 15:40 17,4 C 92 % 1009,3 hPa 0,3 mm 1,6 km/h (1 Bft) NO 45 0 min 1 UV-I 58 W/m 11,3 km/h (2 Bft)
15.08.2010 15:50 17,4 C 93 % 1009,1 hPa 0,0 mm 1,6 km/h (1 Bft) N-NO 22 0 min 1 UV-I 63 W/m 8,0 km/h (2 Bft)
15.08.2010 16:00 17,5 C 93 % 1009,0 hPa 0,3 mm 1,6 km/h (1 Bft) NO 45 0 min 0 UV-I 47 W/m 6,4 km/h (2 Bft)
15.08.2010 16:10 17,4 C 93 % 1009,0 hPa 0,0 mm 1,6 km/h (1 Bft) N 360 0 min 0 UV-I 44 W/m 6,4 km/h (2 Bft)
15.08.2010 16:20 17,4 C 93 % 1009,2 hPa 0,3 mm 0,0 km/h (0 Bft) NO 45 0 min 0 UV-I 23 W/m 6,4 km/h (2 Bft)
15.08.2010 16:30 17,4 C 93 % 1009,3 hPa 0,3 mm 0,0 km/h (0 Bft) N 0 0 min 0 UV-I 16 W/m 0,0 km/h (0 Bft)
15.08.2010 16:40 17,4 C 93 % 1009,2 hPa 0,5 mm 0,0 km/h (0 Bft) N 0 0 min 0 UV-I 23 W/m 0,0 km/h (0 Bft)
15.08.2010 16:50 17,5 C 93 % 1009,2 hPa 0,3 mm 0,0 km/h (0 Bft) O 90 0 min 0 UV-I 32 W/m 1,6 km/h (1 Bft)
15.08.2010 17:00 17,5 C 93 % 1008,7 hPa 0,3 mm 0,0 km/h (0 Bft) O 90 0 min 1 UV-I 84 W/m 3,2 km/h (1 Bft)
15.08.2010 17:10 17,5 C 93 % 1008,6 hPa 0,5 mm 0,0 km/h (0 Bft) SO 135 0 min 1 UV-I 105 W/m 3,2 km/h (1 Bft)
15.08.2010 17:20 17,7 C 93 % 1008,6 hPa 0,3 mm 0,0 km/h (0 Bft) S 180 0 min 1 UV-I 141 W/m 4,8 km/h (1 Bft)
15.08.2010 17:30 17,7 C 93 % 1008,7 hPa 0,3 mm 0,0 km/h (0 Bft) N 0 0 min 1 UV-I 118 W/m 0,0 km/h (0 Bft)
15.08.2010 17:40 17,7 C 93 % 1008,6 hPa 0,0 mm 0,0 km/h (0 Bft) N 0 0 min 1 UV-I 72 W/m 0,0 km/h (0 Bft)
15.08.2010 17:50 17,6 C 93 % 1008,3 hPa 0,3 mm 0,0 km/h (0 Bft) N 0 0 min 0 UV-I 54 W/m 0,0 km/h (0 Bft)
15.08.2010 18:00 17,7 C 93 % 1008,2 hPa 0,3 mm 0,0 km/h (0 Bft) N 0 0 min 1 UV-I 90 W/m 0,0 km/h (0 Bft)
15.08.2010 18:10 17,9 C 93 % 1008,1 hPa 0,0 mm 0,0 km/h (0 Bft) N 0 0 min 1 UV-I 91 W/m 0,0 km/h (0 Bft)
15.08.2010 18:20 17,9 C 93 % 1008,1 hPa 0,0 mm 0,0 km/h (0 Bft) O-SO 112 0 min 0 UV-I 46 W/m 1,6 km/h (1 Bft)
15.08.2010 18:30 18,0 C 93 % 1007,9 hPa 0,3 mm 0,0 km/h (0 Bft) N 0 0 min 0 UV-I 33 W/m 0,0 km/h (0 Bft)
15.08.2010 18:40 18,0 C 93 % 1007,8 hPa 0,0 mm 0,0 km/h (0 Bft) N 0 0 min 0 UV-I 53 W/m 0,0 km/h (0 Bft)
15.08.2010 18:50 17,9 C 93 % 1007,7 hPa 0,3 mm 0,0 km/h (0 Bft) O-SO 112 0 min 0 UV-I 42 W/m 1,6 km/h (1 Bft)
15.08.2010 19:00 18,0 C 93 % 1007,9 hPa 0,0 mm 0,0 km/h (0 Bft) O-SO 112 0 min 0 UV-I 42 W/m 1,6 km/h (1 Bft)
15.08.2010 19:10 17,9 C 93 % 1008,0 hPa 0,0 mm 1,6 km/h (1 Bft) O-SO 112 0 min 0 UV-I 70 W/m 6,4 km/h (2 Bft)
15.08.2010 19:20 17,8 C 93 % 1007,8 hPa 0,0 mm 0,0 km/h (0 Bft) O-SO 112 0 min 0 UV-I 74 W/m 4,8 km/h (1 Bft)
15.08.2010 19:30 17,8 C 93 % 1007,8 hPa 0,0 mm 3,2 km/h (1 Bft) O-SO 112 0 min 0 UV-I 63 W/m 11,3 km/h (2 Bft)
15.08.2010 19:40 17,5 C 93 % 1007,6 hPa 0,3 mm 3,2 km/h (1 Bft) O-SO 112 0 min 0 UV-I 33 W/m 11,3 km/h (2 Bft)
15.08.2010 19:50 17,4 C 93 % 1007,2 hPa 0,0 mm 1,6 km/h (1 Bft) SO 135 0 min 0 UV-I 30 W/m 6,4 km/h (2 Bft)
15.08.2010 20:00 17,3 C 93 % 1007,3 hPa 0,0 mm 1,6 km/h (1 Bft) SO 135 0 min 0 UV-I 30 W/m 4,8 km/h (1 Bft)
15.08.2010 20:10 17,2 C 93 % 1007,6 hPa 0,0 mm 1,6 km/h (1 Bft) SO 135 0 min 0 UV-I 23 W/m 8,0 km/h (2 Bft)
15.08.2010 20:20 17,2 C 93 % 1007,9 hPa 0,0 mm 1,6 km/h (1 Bft) O-SO 112 0 min 0 UV-I 16 W/m 8,0 km/h (2 Bft)
15.08.2010 20:30 17,1 C 93 % 1007,7 hPa 0,3 mm 1,6 km/h (1 Bft) O-SO 112 0 min 0 UV-I 11 W/m 9,7 km/h (2 Bft)
15.08.2010 20:40 16,8 C 93 % 1007,8 hPa 0,0 mm 1,6 km/h (1 Bft) SO 135 0 min 0 UV-I 0 W/m 8,0 km/h (2 Bft)
15.08.2010 20:50 16,7 C 93 % 1008,0 hPa 0,0 mm 1,6 km/h (1 Bft) SO 135 0 min 0 UV-I 0 W/m 6,4 km/h (2 Bft)
15.08.2010 21:00 16,6 C 93 % 1007,9 hPa 0,0 mm 0,0 km/h (0 Bft) SO 135 0 min 0 UV-I 0 W/m 4,8 km/h (1 Bft)
15.08.2010 21:10 16,5 C 92 % 1007,9 hPa 0,0 mm 0,0 km/h (0 Bft) SO 135 0 min 0 UV-I 0 W/m 3,2 km/h (1 Bft)
15.08.2010 21:20 16,4 C 92 % 1007,9 hPa 0,0 mm 1,6 km/h (1 Bft) SO 135 0 min 0 UV-I 0 W/m 6,4 km/h (2 Bft)
15.08.2010 21:30 16,3 C 93 % 1008,2 hPa 0,0 mm 0,0 km/h (0 Bft) SO 135 0 min 0 UV-I 0 W/m 4,8 km/h (1 Bft)
15.08.2010 21:40 16,2 C 93 % 1008,2 hPa 0,0 mm 0,0 km/h (0 Bft) SO 135 0 min 0 UV-I 0 W/m 3,2 km/h (1 Bft)
15.08.2010 21:50 16,2 C 93 % 1008,2 hPa 0,0 mm 1,6 km/h (1 Bft) O-SO 112 0 min 0 UV-I 0 W/m 6,4 km/h (2 Bft)
15.08.2010 22:00 16,1 C 93 % 1007,9 hPa 0,0 mm 0,0 km/h (0 Bft) O-SO 112 0 min 0 UV-I 0 W/m 0,0 km/h (0 Bft)
15.08.2010 22:10 16,0 C 92 % 1007,9 hPa 0,0 mm 0,4 km/h (0 Bft) O-SO 112 0 min 0 UV-I 0 W/m 4,8 km/h (1 Bft)
15.08.2010 22:20 16,0 C 93 % 1007,9 hPa 0,0 mm 0,2 km/h (0 Bft) O-SO 112 0 min 0 UV-I 0 W/m 3,2 km/h (1 Bft)
15.08.2010 22:30 15,9 C 93 % 1007,8 hPa 0,0 mm 0,1 km/h (0 Bft) O-SO 112 0 min 0 UV-I 0 W/m 3,2 km/h (1 Bft)
15.08.2010 22:40 15,8 C 93 % 1007,5 hPa 0,0 mm 0,0 km/h (0 Bft) O-SO 112 0 min 0 UV-I 0 W/m 0,0 km/h (0 Bft)
15.08.2010 22:50 15,7 C 92 % 1007,7 hPa 0,0 mm 0,0 km/h (0 Bft) O-SO 111 0 min 0 UV-I 0 W/m 1,6 km/h (1 Bft)
15.08.2010 23:00 15,7 C 92 % 1007,6 hPa 0,0 mm 0,1 km/h (0 Bft) O-SO 113 0 min 0 UV-I 0 W/m 3,2 km/h (1 Bft)
15.08.2010 23:10 15,5 C 93 % 1007,8 hPa 0,0 mm 0,0 km/h (0 Bft) O-SO 113 0 min 0 UV-I 0 W/m 0,0 km/h (0 Bft)
15.08.2010 23:20 15,2 C 92 % 1008,0 hPa 0,0 mm 0,0 km/h (0 Bft) O-SO 113 0 min 0 UV-I 0 W/m 1,6 km/h (1 Bft)
15.08.2010 23:30 15,1 C 93 % 1008,0 hPa 0,0 mm 0,0 km/h (0 Bft) O-SO 113 0 min 0 UV-I 0 W/m 1,6 km/h (1 Bft)
15.08.2010 23:40 15,2 C 93 % 1007,7 hPa 0,0 mm 0,0 km/h (0 Bft) O-SO 113 0 min 0 UV-I 0 W/m 1,6 km/h (1 Bft)
15.08.2010 23:50 15,1 C 93 % 1007,5 hPa 0,0 mm 0,0 km/h (0 Bft) O-SO 113 0 min 0 UV-I 0 W/m 0,0 km/h (0 Bft)
_ Min-Zeit 02:10 00:00 19:50 - 00:00 - - - - - 01:00
Minimum _ 14,6 C 79 % 1007,2 hPa - 0,0 km/h (0 Bft) - - - - - 0,0 km/h (0 Bft)
_ Max-Zeit 11:50 15:50 00:00 14:10 08:20 - - 00:00 12:40 17:20 08:10
Maximum _ 18,1 C 93 % 1015,6 hPa 1,0 mm 4,8 km/h
O-NO (1 Bft)
- - 0 min 1 UV-I 141 W/m 16,1 km/h
N-NO (3 Bft)
Durchschnitt _ 16,7 C 88 % 1011,1 hPa #7,4 mm 1,4 km/h (1 Bft) N-NO - #0 min. 1 UV-I 52 W/m 6,6 km/h (2 Bft)